CheckWX is a tool to help pilots better visualize weather data.  It is not intended as a substitute for an official pre-flight weather briefing.

21:00:41 UTC

EGBB TAF
Birmingham International Airport
Birmingham, United Kingdom
TAF EGBB 091703Z 0918/1018 30010KT CAVOK BECMG 0918/0921 24004KT BECMG 1002/1005 18010KT PROB30 TEMPO 1005/1008 19015G25KT BECMG 1008/1010 19017G27KT FEW014 BKN020 TEMPO 1009/1017 19024G37KT 6000 RA BKN012 BECMG 1016/1018 26015G25KT PROB30 TEMPO 1016/1018 4000 +RA BKN008

Dec-9@
18:00 UTC

Dec-9 @ 18:00 UTC

Dec-10@
18:00 UTC

Dec-10 @ 18:00 UTC

TAF EGBB 091703Z 0918/1018 30010KT CAVOK
Wind
  • 300° at 10 KTS
Conditions
No significant weather
Cloud Levels
  • No significant clouds

Dec-9@
18:00 UTC

Dec-9 @ 18:00 UTC

Dec-10@
02:00 UTC

Dec-10 @ 02:00 UTC

BECMG 0918/0921 24004KT

Becoming

Becoming Conditions expected by Mon, Dec 9, 2019 @ 21:00 UTC

Wind
  • 240° at 4 KTS
Conditions
No significant weather
Cloud Levels
  • No significant clouds

Dec-10@
02:00 UTC

Dec-10 @ 02:00 UTC

Dec-10@
08:00 UTC

Dec-10 @ 08:00 UTC

BECMG 1002/1005 18010KT

Becoming

Becoming Conditions expected by Tue, Dec 10, 2019 @ 05:00 UTC

Wind
  • 180° at 10 KTS
Conditions
No significant weather
Cloud Levels
  • No significant clouds

Dec-10@
05:00 UTC

Dec-10 @ 05:00 UTC

Dec-10@
08:00 UTC

Dec-10 @ 08:00 UTC

PROB30 TEMPO 1005/1008 19015G25KT

Temporary - 30% Likelihood

Temporary - 30% Likelihood during this time.

Wind
  • 190° at 15 KTS
  • {Gusting to 25 KTS

Dec-10@
08:00 UTC

Dec-10 @ 08:00 UTC

Dec-10@
16:00 UTC

Dec-10 @ 16:00 UTC

BECMG 1008/1010 19017G27KT FEW014 BKN020

Becoming

Becoming Conditions expected by Tue, Dec 10, 2019 @ 10:00 UTC

Wind
  • 190° at 17 KTS
  • {Gusting to 27 KTS
Conditions
No significant weather
Cloud Levels
  • Few at 1,400' AGL
  • Broken at 2,000' AGL

Dec-10@
09:00 UTC

Dec-10 @ 09:00 UTC

Dec-10@
17:00 UTC

Dec-10 @ 17:00 UTC

TEMPO 1009/1017 19024G37KT 6000 RA BKN012

Temporary

Temporary Changes expected for less than half the time period

Wind
  • 190° at 24 KTS
  • {Gusting to 37 KTS
Conditions
Rain
Cloud Levels
  • Broken at 1,200' AGL

Dec-10@
16:00 UTC

Dec-10 @ 16:00 UTC

Dec-10@
18:00 UTC

Dec-10 @ 18:00 UTC

BECMG 1016/1018 26015G25KT

Becoming

Becoming Conditions expected by Tue, Dec 10, 2019 @ 18:00 UTC

Wind
  • 260° at 15 KTS
  • {Gusting to 25 KTS
Conditions
No significant weather
Cloud Levels
  • Few at 1,400' AGL
  • Broken at 2,000' AGL

Dec-10@
16:00 UTC

Dec-10 @ 16:00 UTC

Dec-10@
18:00 UTC

Dec-10 @ 18:00 UTC

PROB30 TEMPO 1016/1018 4000 +RA BKN008

Temporary - 30% Likelihood

Temporary - 30% Likelihood during this time.

Conditions
Heavy Rain
Cloud Levels
  • Broken at 800' AGL